Albertson, North Carolina
Current Conditions -  °F | °C
As of 4:15 PM on Saturday 22 Nov 2014 (Local Time) from KDPL Reporting Station
Clear Clear  
Wind Chill: 56°   Ceiling: Unl
Heat Index: 56°   Visibility: 10mi
Dew Point: 25°   Wind: 0mph
Humidity: 30%   Direction: NA
Pressure: 30.42"   Gusts: NA
Location:  35.11°N, 77.82°W
Report Text: KDPL 222115Z AUTO 00000KT 10SM CLR 13/M04 A3042 RMK AO2 T01311040
Loading
Personal Weather Stations






























Interactive Weather Map New forecast layout! Learn more

10-Day Weather Forecast

Advertisements
Track Severe Weather on mobile